Currently 64°F in French Valley, California, USA
64°F
70°F / 60°F
8 mph S
0.00"
Monday, June 17, 2019 6:19 PM PDT

French Valley, California Weather Summary
Last 36 Hours

Temperature Winds Hourly Humidity Dewpoint
Time Report Norm Report Norm Max Gusts Precip. Rpt. Norm Rpt. Norm Pressure
1Mon 06:19 PM  64.4°F  77°F  8 mph S  7 mph  13 mph  0.00"  86%  49%  60°F  56°F  29.95"
Mon 06:00 PM  65.4°F  78°F  6 mph S  8 mph  14 mph  0.00"  85%  47%  60°F  56°F  29.94"
Mon 05:00 PM  66.9°F  81°F  8 mph SW  8 mph  17 mph  0.00"  82%  43%  61°F  55°F  29.95"
Mon 04:00 PM  67.5°F  83°F  11 mph S  9 mph  18 mph  0.00"  82%  40%  62°F  55°F  29.96"
Mon 03:00 PM  68.7°F  84°F  10 mph S  8 mph  17 mph  0.00"  81%  38%  62°F  55°F  29.97"
Mon 02:00 PM  69.5°F  84°F  10 mph S  7 mph  15 mph  0.00"  78%  38%  62°F  55°F  29.98"
2Mon 01:35 PM  70.4°F  84°F  6 mph S  6 mph  15 mph  ----  76%  39%  62°F  55°F  29.98"
Mon 01:00 PM  69.4°F  83°F  5 mph S  6 mph  18 mph  0.00"  77%  40%  62°F  55°F  29.99"
Mon 12:00 PM  68.6°F  80°F  3 mph SW  5 mph  11 mph  0.00"  79%  44%  62°F  56°F  29.99"
Mon 11:00 AM  65.8°F  77°F  calm  4 mph  5 mph  0.00"  87%  50%  62°F  57°F  29.99"
Mon 10:00 AM  63.2°F  73°F  calm  3 mph  6 mph  0.00"  92%  59%  61°F  57°F  30.00"
Mon 09:00 AM  62.2°F  68°F  calm  2 mph  7 mph  0.00"  95%  71%  61°F  58°F  29.99"
Mon 08:00 AM  61.2°F  64°F  5 mph SE  1 mph  5 mph  0.00"  96%  80%  60°F  57°F  29.98"
Mon 07:00 AM  60.8°F  60°F  calm  1 mph  4 mph  0.00"  97%  86%  60°F  56°F  29.97"
Mon 06:00 AM  60.5°F  58°F  calm  1 mph  5 mph  0.00"  97%  88%  60°F  55°F  29.96"
Mon 05:00 AM  60.4°F  59°F  calm  calm  5 mph  0.00"  97%  87%  60°F  55°F  29.94"
3Mon 04:28 AM  60.1°F  59°F  calm  1 mph  4 mph  ----  97%  87%  59°F  55°F  29.94"
Mon 04:00 AM  60.3°F  59°F  3 mph S  1 mph  5 mph  0.00"  97%  87%  59°F  55°F  29.94"
Mon 03:00 AM  60.7°F  60°F  calm  1 mph  6 mph  0.00"  97%  86%  60°F  56°F  29.95"
Mon 02:00 AM  60.6°F  61°F  calm  1 mph  5 mph  0.00"  97%  85%  60°F  56°F  29.95"
Mon 01:00 AM  60.8°F  61°F  1 mph S  1 mph  5 mph  0.00"  97%  84%  60°F  56°F  29.95"
Mon 12:00 AM  60.9°F  62°F  calm  1 mph  6 mph  0.00"  97%  82%  60°F  57°F  29.96"
Sun 11:00 PM  60.5°F  64°F  4 mph S  2 mph  8 mph  0.00"  97%  80%  60°F  57°F  29.96"
Sun 10:00 PM  60.8°F  65°F  1 mph S  2 mph  10 mph  0.00"  97%  77%  60°F  57°F  29.97"
Sun 09:00 PM  61.4°F  67°F  4 mph S  4 mph  14 mph  0.00"  96%  73%  60°F  58°F  29.96"
Sun 08:00 PM  62.0°F  70°F  8 mph S  6 mph  17 mph  0.00"  95%  64%  61°F  57°F  29.93"
Sun 07:00 PM  64.7°F  75°F  7 mph S  7 mph  16 mph  0.00"  89%  55%  61°F  57°F  29.91"
Sun 06:00 PM  68.9°F  78°F  7 mph S  8 mph  16 mph  0.00"  80%  48%  62°F  56°F  29.89"
Sun 05:00 PM  71.8°F  80°F  11 mph S  8 mph  16 mph  0.00"  74%  44%  63°F  56°F  29.89"
Sun 04:00 PM  74.5°F  82°F  9 mph S  8 mph  17 mph  0.00"  69%  41%  63°F  55°F  29.90"
Sun 03:00 PM  75.3°F  83°F  10 mph SE  8 mph  14 mph  0.00"  66%  40%  63°F  55°F  29.92"
Sun 02:00 PM  75.8°F  83°F  9 mph S  7 mph  16 mph  0.00"  66%  40%  63°F  55°F  29.93"
Sun 01:00 PM  74.8°F  82°F  2 mph S  6 mph  10 mph  0.00"  68%  41%  63°F  55°F  29.95"
Sun 12:00 PM  71.8°F  80°F  3 mph SW  5 mph  9 mph  0.00"  74%  45%  63°F  56°F  29.97"
Sun 11:00 AM  71.7°F  77°F  3 mph S  3 mph  10 mph  0.00"  75%  51%  63°F  57°F  29.98"
Sun 10:00 AM  67.0°F  72°F  2 mph SW  3 mph  9 mph  0.00"  87%  60%  63°F  57°F  29.98"
Sun 09:00 AM  63.0°F  68°F  2 mph S  2 mph  6 mph  0.00"  94%  71%  61°F  58°F  29.99"
Sun 08:00 AM  61.7°F  64°F  calm  1 mph  5 mph  0.00"  96%  80%  61°F  57°F  29.99"
Sun 07:00 AM  61.0°F  60°F  2 mph W  1 mph  5 mph  0.00"  97%  86%  60°F  56°F  29.97"

  1. Current weather data. No green row appears if the current weather data is also the high or low for the current day.
  2. High temperature for the current day.
  3. Low temperature for the current day.

The French Valley, California weather pages are a service of WeatherCurrents. French Valley is located in southwestern Riverside County, California, north of Temecula, east of Murrieta, and south of Winchester. French Valley is bordered by Lake Skinner.
Copyright ©2019  WeatherCurrents. All rights reserved. - Submit questions and comments - Privacy Policy

This page automatically refreshes every 10 minutes.